sensor_id;sensor_type;location;lat;lon;timestamp;P1;durP1;ratioP1;P2;durP2;ratioP2
44147;SDS011;29810;55.848;37.368;2022-08-19T00:02:13;10.98;;;6.07;;
44147;SDS011;29810;55.848;37.368;2022-08-19T00:05:15;12.18;;;7.00;;
44147;SDS011;29810;55.848;37.368;2022-08-19T00:08:16;12.73;;;7.30;;
44147;SDS011;29810;55.848;37.368;2022-08-19T00:11:18;12.73;;;6.90;;
44147;SDS011;29810;55.848;37.368;2022-08-19T00:14:20;10.00;;;7.10;;
44147;SDS011;29810;55.848;37.368;2022-08-19T00:17:22;13.73;;;6.82;;
44147;SDS011;29810;55.848;37.368;2022-08-19T00:20:24;13.60;;;7.30;;
44147;SDS011;29810;55.848;37.368;2022-08-19T00:23:26;10.52;;;7.50;;
44147;SDS011;29810;55.848;37.368;2022-08-19T00:26:28;10.32;;;7.37;;
44147;SDS011;29810;55.848;37.368;2022-08-19T00:29:30;13.32;;;6.87;;
44147;SDS011;29810;55.848;37.368;2022-08-19T00:32:32;9.82;;;6.93;;
44147;SDS011;29810;55.848;37.368;2022-08-19T00:35:35;12.35;;;7.90;;
44147;SDS011;29810;55.848;37.368;2022-08-19T00:38:39;12.93;;;7.47;;
44147;SDS011;29810;55.848;37.368;2022-08-19T00:41:44;16.00;;;7.30;;
44147;SDS011;29810;55.848;37.368;2022-08-19T00:44:49;11.88;;;6.97;;
44147;SDS011;29810;55.848;37.368;2022-08-19T00:47:51;10.10;;;7.00;;
44147;SDS011;29810;55.848;37.368;2022-08-19T00:50:53;15.65;;;7.10;;
44147;SDS011;29810;55.848;37.368;2022-08-19T00:53:57;11.57;;;7.35;;
44147;SDS011;29810;55.848;37.368;2022-08-19T00:57:00;16.83;;;7.37;;
44147;SDS011;29810;55.848;37.368;2022-08-19T01:00:06;12.07;;;7.87;;
44147;SDS011;29810;55.848;37.368;2022-08-19T01:03:19;12.98;;;7.93;;
44147;SDS011;29810;55.848;37.368;2022-08-19T01:06:22;14.68;;;8.07;;
44147;SDS011;29810;55.848;37.368;2022-08-19T01:09:24;9.90;;;7.43;;
44147;SDS011;29810;55.848;37.368;2022-08-19T01:12:26;13.88;;;7.97;;
44147;SDS011;29810;55.848;37.368;2022-08-19T01:15:29;15.65;;;8.43;;
44147;SDS011;29810;55.848;37.368;2022-08-19T01:18:38;11.32;;;7.93;;
44147;SDS011;29810;55.848;37.368;2022-08-19T01:21:44;14.95;;;8.60;;
44147;SDS011;29810;55.848;37.368;2022-08-19T01:24:53;13.07;;;8.50;;
44147;SDS011;29810;55.848;37.368;2022-08-19T01:27:54;14.87;;;8.60;;
44147;SDS011;29810;55.848;37.368;2022-08-19T01:30:56;13.48;;;8.93;;
44147;SDS011;29810;55.848;37.368;2022-08-19T01:33:59;14.10;;;9.00;;
44147;SDS011;29810;55.848;37.368;2022-08-19T01:37:05;16.70;;;9.90;;
44147;SDS011;29810;55.848;37.368;2022-08-19T01:40:09;16.12;;;9.48;;
44147;SDS011;29810;55.848;37.368;2022-08-19T01:43:11;14.45;;;9.50;;
44147;SDS011;29810;55.848;37.368;2022-08-19T01:46:12;15.55;;;9.65;;
44147;SDS011;29810;55.848;37.368;2022-08-19T01:49:14;14.07;;;9.05;;
44147;SDS011;29810;55.848;37.368;2022-08-19T01:52:18;12.70;;;9.48;;
44147;SDS011;29810;55.848;37.368;2022-08-19T01:55:21;17.12;;;9.55;;
44147;SDS011;29810;55.848;37.368;2022-08-19T01:58:33;16.67;;;9.73;;
44147;SDS011;29810;55.848;37.368;2022-08-19T02:01:42;16.73;;;10.23;;
44147;SDS011;29810;55.848;37.368;2022-08-19T02:04:44;13.62;;;9.75;;
44147;SDS011;29810;55.848;37.368;2022-08-19T02:07:47;19.95;;;9.80;;
44147;SDS011;29810;55.848;37.368;2022-08-19T02:10:49;16.33;;;9.60;;
44147;SDS011;29810;55.848;37.368;2022-08-19T02:13:50;15.80;;;9.85;;
44147;SDS011;29810;55.848;37.368;2022-08-19T02:16:52;17.98;;;9.35;;
44147;SDS011;29810;55.848;37.368;2022-08-19T02:19:53;13.52;;;9.77;;
44147;SDS011;29810;55.848;37.368;2022-08-19T02:22:56;12.68;;;9.30;;
44147;SDS011;29810;55.848;37.368;2022-08-19T02:25:57;14.82;;;9.40;;
44147;SDS011;29810;55.848;37.368;2022-08-19T02:28:59;15.02;;;9.77;;
44147;SDS011;29810;55.848;37.368;2022-08-19T02:32:01;14.82;;;9.98;;
44147;SDS011;29810;55.848;37.368;2022-08-19T02:35:03;14.93;;;9.85;;
44147;SDS011;29810;55.848;37.368;2022-08-19T02:38:05;15.35;;;9.48;;
44147;SDS011;29810;55.848;37.368;2022-08-19T02:41:27;18.87;;;9.15;;
44147;SDS011;29810;55.848;37.368;2022-08-19T02:44:31;14.00;;;8.93;;
44147;SDS011;29810;55.848;37.368;2022-08-19T02:47:33;18.05;;;8.52;;
44147;SDS011;29810;55.848;37.368;2022-08-19T02:50:38;14.43;;;8.73;;
44147;SDS011;29810;55.848;37.368;2022-08-19T02:53:40;12.30;;;8.43;;
44147;SDS011;29810;55.848;37.368;2022-08-19T02:56:42;13.25;;;8.73;;
44147;SDS011;29810;55.848;37.368;2022-08-19T02:59:45;10.35;;;8.23;;
44147;SDS011;29810;55.848;37.368;2022-08-19T03:02:46;16.55;;;8.55;;
44147;SDS011;29810;55.848;37.368;2022-08-19T03:05:47;11.05;;;8.00;;
44147;SDS011;29810;55.848;37.368;2022-08-19T03:08:49;14.30;;;8.25;;
44147;SDS011;29810;55.848;37.368;2022-08-19T03:11:51;12.93;;;8.35;;
44147;SDS011;29810;55.848;37.368;2022-08-19T03:14:52;11.45;;;8.32;;
44147;SDS011;29810;55.848;37.368;2022-08-19T03:17:54;13.43;;;7.80;;
44147;SDS011;29810;55.848;37.368;2022-08-19T03:20:55;14.32;;;7.97;;
44147;SDS011;29810;55.848;37.368;2022-08-19T03:23:58;17.48;;;8.07;;
44147;SDS011;29810;55.848;37.368;2022-08-19T03:27:02;12.50;;;7.75;;
44147;SDS011;29810;55.848;37.368;2022-08-19T03:30:05;13.07;;;8.25;;
44147;SDS011;29810;55.848;37.368;2022-08-19T03:33:08;9.50;;;7.57;;
44147;SDS011;29810;55.848;37.368;2022-08-19T03:36:18;11.88;;;7.78;;
44147;SDS011;29810;55.848;37.368;2022-08-19T03:39:23;13.18;;;7.65;;
44147;SDS011;29810;55.848;37.368;2022-08-19T03:42:26;15.20;;;7.68;;
44147;SDS011;29810;55.848;37.368;2022-08-19T03:45:28;17.67;;;8.00;;
44147;SDS011;29810;55.848;37.368;2022-08-19T03:48:30;13.10;;;7.40;;
44147;SDS011;29810;55.848;37.368;2022-08-19T03:51:37;16.37;;;7.87;;
44147;SDS011;29810;55.848;37.368;2022-08-19T03:54:39;14.77;;;7.78;;
44147;SDS011;29810;55.848;37.368;2022-08-19T03:57:40;13.88;;;8.35;;
44147;SDS011;29810;55.848;37.368;2022-08-19T04:00:43;13.35;;;7.80;;
44147;SDS011;29810;55.848;37.368;2022-08-19T04:03:44;13.60;;;7.72;;
44147;SDS011;29810;55.848;37.368;2022-08-19T04:06:47;14.95;;;7.95;;
44147;SDS011;29810;55.848;37.368;2022-08-19T04:09:49;13.25;;;8.20;;
44147;SDS011;29810;55.848;37.368;2022-08-19T04:12:52;16.90;;;7.57;;
44147;SDS011;29810;55.848;37.368;2022-08-19T04:15:54;14.63;;;7.90;;
44147;SDS011;29810;55.848;37.368;2022-08-19T04:18:56;15.10;;;7.85;;
44147;SDS011;29810;55.848;37.368;2022-08-19T04:22:00;19.70;;;7.82;;
44147;SDS011;29810;55.848;37.368;2022-08-19T04:25:03;11.40;;;7.00;;
44147;SDS011;29810;55.848;37.368;2022-08-19T04:28:05;10.57;;;7.78;;
44147;SDS011;29810;55.848;37.368;2022-08-19T04:31:14;14.75;;;7.28;;
44147;SDS011;29810;55.848;37.368;2022-08-19T04:34:18;10.82;;;7.43;;
44147;SDS011;29810;55.848;37.368;2022-08-19T04:37:23;9.77;;;6.60;;
44147;SDS011;29810;55.848;37.368;2022-08-19T04:40:27;11.07;;;6.37;;
44147;SDS011;29810;55.848;37.368;2022-08-19T04:43:47;10.63;;;6.00;;
44147;SDS011;29810;55.848;37.368;2022-08-19T04:46:50;12.77;;;6.40;;
44147;SDS011;29810;55.848;37.368;2022-08-19T04:49:52;11.07;;;6.07;;
44147;SDS011;29810;55.848;37.368;2022-08-19T04:52:53;8.35;;;5.78;;
44147;SDS011;29810;55.848;37.368;2022-08-19T04:55:57;11.20;;;6.20;;
44147;SDS011;29810;55.848;37.368;2022-08-19T04:59:00;10.75;;;5.78;;
44147;SDS011;29810;55.848;37.368;2022-08-19T05:02:04;13.38;;;5.45;;
44147;SDS011;29810;55.848;37.368;2022-08-19T05:05:07;13.98;;;5.57;;
44147;SDS011;29810;55.848;37.368;2022-08-19T05:08:10;8.25;;;5.22;;
44147;SDS011;29810;55.848;37.368;2022-08-19T05:11:19;9.52;;;6.80;;
44147;SDS011;29810;55.848;37.368;2022-08-19T05:14:22;11.35;;;5.93;;
44147;SDS011;29810;55.848;37.368;2022-08-19T05:17:24;11.93;;;5.35;;
44147;SDS011;29810;55.848;37.368;2022-08-19T05:20:27;9.48;;;5.20;;
44147;SDS011;29810;55.848;37.368;2022-08-19T05:23:47;11.73;;;5.10;;
44147;SDS011;29810;55.848;37.368;2022-08-19T05:26:50;10.02;;;5.05;;
44147;SDS011;29810;55.848;37.368;2022-08-19T05:29:53;8.00;;;5.22;;
44147;SDS011;29810;55.848;37.368;2022-08-19T05:32:54;12.50;;;5.30;;
44147;SDS011;29810;55.848;37.368;2022-08-19T05:35:56;9.63;;;5.47;;
44147;SDS011;29810;55.848;37.368;2022-08-19T05:38:58;10.60;;;5.40;;
44147;SDS011;29810;55.848;37.368;2022-08-19T05:42:02;9.68;;;5.47;;
44147;SDS011;29810;55.848;37.368;2022-08-19T05:45:07;11.15;;;5.40;;
44147;SDS011;29810;55.848;37.368;2022-08-19T05:48:10;10.93;;;5.62;;
44147;SDS011;29810;55.848;37.368;2022-08-19T05:51:12;10.18;;;5.20;;
44147;SDS011;29810;55.848;37.368;2022-08-19T05:54:14;12.10;;;5.45;;
44147;SDS011;29810;55.848;37.368;2022-08-19T05:57:16;16.52;;;5.82;;
44147;SDS011;29810;55.848;37.368;2022-08-19T06:00:18;9.85;;;4.95;;
44147;SDS011;29810;55.848;37.368;2022-08-19T06:03:19;11.38;;;5.47;;
44147;SDS011;29810;55.848;37.368;2022-08-19T06:06:21;11.43;;;5.60;;
44147;SDS011;29810;55.848;37.368;2022-08-19T06:09:23;11.73;;;5.70;;
44147;SDS011;29810;55.848;37.368;2022-08-19T06:12:24;10.60;;;5.60;;
44147;SDS011;29810;55.848;37.368;2022-08-19T06:15:29;11.07;;;5.85;;
44147;SDS011;29810;55.848;37.368;2022-08-19T06:18:31;9.45;;;5.60;;
44147;SDS011;29810;55.848;37.368;2022-08-19T06:21:35;8.38;;;5.32;;
44147;SDS011;29810;55.848;37.368;2022-08-19T06:24:38;8.82;;;5.47;;
44147;SDS011;29810;55.848;37.368;2022-08-19T06:27:40;10.18;;;5.78;;
44147;SDS011;29810;55.848;37.368;2022-08-19T06:30:42;9.90;;;6.10;;
44147;SDS011;29810;55.848;37.368;2022-08-19T06:33:44;11.82;;;5.90;;
44147;SDS011;29810;55.848;37.368;2022-08-19T06:36:47;8.98;;;5.45;;
44147;SDS011;29810;55.848;37.368;2022-08-19T06:39:50;10.48;;;5.50;;
44147;SDS011;29810;55.848;37.368;2022-08-19T06:42:51;10.63;;;6.07;;
44147;SDS011;29810;55.848;37.368;2022-08-19T06:45:53;12.85;;;5.82;;
44147;SDS011;29810;55.848;37.368;2022-08-19T06:48:55;15.38;;;6.20;;
44147;SDS011;29810;55.848;37.368;2022-08-19T06:51:56;11.45;;;6.50;;
44147;SDS011;29810;55.848;37.368;2022-08-19T06:54:59;12.35;;;6.50;;
44147;SDS011;29810;55.848;37.368;2022-08-19T06:58:02;15.05;;;5.97;;
44147;SDS011;29810;55.848;37.368;2022-08-19T07:01:05;10.60;;;5.80;;
44147;SDS011;29810;55.848;37.368;2022-08-19T07:04:07;12.77;;;5.93;;
44147;SDS011;29810;55.848;37.368;2022-08-19T07:07:13;11.12;;;5.90;;
44147;SDS011;29810;55.848;37.368;2022-08-19T07:10:16;12.32;;;5.95;;
44147;SDS011;29810;55.848;37.368;2022-08-19T07:13:18;15.65;;;5.90;;
44147;SDS011;29810;55.848;37.368;2022-08-19T07:16:20;12.32;;;6.20;;
44147;SDS011;29810;55.848;37.368;2022-08-19T07:19:23;13.70;;;6.03;;
44147;SDS011;29810;55.848;37.368;2022-08-19T07:22:30;14.73;;;6.18;;
44147;SDS011;29810;55.848;37.368;2022-08-19T07:25:32;15.00;;;6.55;;
44147;SDS011;29810;55.848;37.368;2022-08-19T07:28:34;13.43;;;6.03;;
44147;SDS011;29810;55.848;37.368;2022-08-19T07:31:37;11.60;;;5.72;;
44147;SDS011;29810;55.848;37.368;2022-08-19T07:34:39;8.90;;;5.60;;
44147;SDS011;29810;55.848;37.368;2022-08-19T07:37:40;12.35;;;5.95;;
44147;SDS011;29810;55.848;37.368;2022-08-19T07:40:45;12.18;;;6.15;;
44147;SDS011;29810;55.848;37.368;2022-08-19T07:43:47;12.98;;;6.07;;
44147;SDS011;29810;55.848;37.368;2022-08-19T07:46:52;12.75;;;5.93;;
44147;SDS011;29810;55.848;37.368;2022-08-19T07:49:56;11.90;;;6.25;;
44147;SDS011;29810;55.848;37.368;2022-08-19T07:52:58;18.90;;;8.10;;
44147;SDS011;29810;55.848;37.368;2022-08-19T07:55:59;11.95;;;5.15;;
44147;SDS011;29810;55.848;37.368;2022-08-19T07:59:05;12.88;;;5.50;;
44147;SDS011;29810;55.848;37.368;2022-08-19T08:02:07;8.65;;;5.80;;
44147;SDS011;29810;55.848;37.368;2022-08-19T08:05:10;9.65;;;5.03;;
44147;SDS011;29810;55.848;37.368;2022-08-19T08:08:30;8.73;;;4.62;;
44147;SDS011;29810;55.848;37.368;2022-08-19T08:11:39;8.15;;;4.70;;
44147;SDS011;29810;55.848;37.368;2022-08-19T08:14:52;10.07;;;4.68;;
44147;SDS011;29810;55.848;37.368;2022-08-19T08:17:56;9.30;;;4.50;;
44147;SDS011;29810;55.848;37.368;2022-08-19T08:20:58;10.32;;;4.43;;
44147;SDS011;29810;55.848;37.368;2022-08-19T08:24:00;8.55;;;4.15;;
44147;SDS011;29810;55.848;37.368;2022-08-19T08:27:01;6.72;;;3.95;;
44147;SDS011;29810;55.848;37.368;2022-08-19T08:30:06;11.80;;;4.75;;
44147;SDS011;29810;55.848;37.368;2022-08-19T08:33:10;8.68;;;3.85;;
44147;SDS011;29810;55.848;37.368;2022-08-19T08:36:12;7.95;;;4.10;;
44147;SDS011;29810;55.848;37.368;2022-08-19T08:39:15;9.13;;;4.25;;
44147;SDS011;29810;55.848;37.368;2022-08-19T08:42:24;7.37;;;3.92;;
44147;SDS011;29810;55.848;37.368;2022-08-19T08:45:32;10.25;;;4.60;;
44147;SDS011;29810;55.848;37.368;2022-08-19T08:48:39;7.12;;;4.57;;
44147;SDS011;29810;55.848;37.368;2022-08-19T08:51:51;9.80;;;4.82;;
44147;SDS011;29810;55.848;37.368;2022-08-19T08:54:59;9.07;;;4.90;;
44147;SDS011;29810;55.848;37.368;2022-08-19T08:58:12;9.80;;;5.03;;
44147;SDS011;29810;55.848;37.368;2022-08-19T09:01:19;9.80;;;5.47;;
44147;SDS011;29810;55.848;37.368;2022-08-19T09:04:21;8.13;;;5.25;;
44147;SDS011;29810;55.848;37.368;2022-08-19T09:10:37;8.27;;;5.22;;
44147;SDS011;29810;55.848;37.368;2022-08-19T09:17:15;11.82;;;5.70;;
44147;SDS011;29810;55.848;37.368;2022-08-19T09:20:20;12.30;;;5.62;;
44147;SDS011;29810;55.848;37.368;2022-08-19T09:23:24;13.93;;;5.12;;
44147;SDS011;29810;55.848;37.368;2022-08-19T09:26:26;12.40;;;5.25;;
44147;SDS011;29810;55.848;37.368;2022-08-19T09:29:28;9.35;;;5.47;;
44147;SDS011;29810;55.848;37.368;2022-08-19T09:32:30;13.13;;;5.40;;
44147;SDS011;29810;55.848;37.368;2022-08-19T09:35:32;8.98;;;5.25;;
44147;SDS011;29810;55.848;37.368;2022-08-19T09:38:35;9.88;;;5.30;;
44147;SDS011;29810;55.848;37.368;2022-08-19T09:41:37;9.30;;;5.43;;
44147;SDS011;29810;55.848;37.368;2022-08-19T09:44:39;10.68;;;5.60;;
44147;SDS011;29810;55.848;37.368;2022-08-19T09:47:42;10.73;;;6.07;;
44147;SDS011;29810;55.848;37.368;2022-08-19T09:50:44;8.88;;;5.80;;
44147;SDS011;29810;55.848;37.368;2022-08-19T09:53:45;8.85;;;5.55;;
44147;SDS011;29810;55.848;37.368;2022-08-19T09:56:48;9.23;;;5.70;;
44147;SDS011;29810;55.848;37.368;2022-08-19T09:59:50;8.75;;;5.40;;
44147;SDS011;29810;55.848;37.368;2022-08-19T10:02:51;9.27;;;5.32;;
44147;SDS011;29810;55.848;37.368;2022-08-19T10:05:53;10.75;;;5.72;;
44147;SDS011;29810;55.848;37.368;2022-08-19T10:08:55;12.75;;;5.82;;
44147;SDS011;29810;55.848;37.368;2022-08-19T10:11:57;10.52;;;6.10;;
44147;SDS011;29810;55.848;37.368;2022-08-19T10:15:02;12.45;;;5.50;;
44147;SDS011;29810;55.848;37.368;2022-08-19T10:18:05;12.57;;;5.35;;
44147;SDS011;29810;55.848;37.368;2022-08-19T10:21:12;10.93;;;5.45;;
44147;SDS011;29810;55.848;37.368;2022-08-19T10:24:18;8.23;;;4.70;;
44147;SDS011;29810;55.848;37.368;2022-08-19T10:27:21;8.07;;;5.18;;
44147;SDS011;29810;55.848;37.368;2022-08-19T10:30:23;9.90;;;5.12;;
44147;SDS011;29810;55.848;37.368;2022-08-19T10:33:24;9.82;;;5.60;;
44147;SDS011;29810;55.848;37.368;2022-08-19T10:36:30;11.18;;;5.78;;
44147;SDS011;29810;55.848;37.368;2022-08-19T10:39:34;11.50;;;6.18;;
44147;SDS011;29810;55.848;37.368;2022-08-19T10:42:37;9.23;;;5.12;;
44147;SDS011;29810;55.848;37.368;2022-08-19T10:45:39;9.45;;;5.25;;
44147;SDS011;29810;55.848;37.368;2022-08-19T10:48:41;10.48;;;6.05;;
44147;SDS011;29810;55.848;37.368;2022-08-19T10:51:43;24.60;;;13.57;;
44147;SDS011;29810;55.848;37.368;2022-08-19T10:55:05;10.82;;;6.72;;
44147;SDS011;29810;55.848;37.368;2022-08-19T10:58:25;10.38;;;6.15;;
44147;SDS011;29810;55.848;37.368;2022-08-19T11:01:27;10.45;;;6.35;;
44147;SDS011;29810;55.848;37.368;2022-08-19T11:04:30;10.80;;;7.03;;
44147;SDS011;29810;55.848;37.368;2022-08-19T11:07:33;14.00;;;6.65;;
44147;SDS011;29810;55.848;37.368;2022-08-19T11:10:35;14.13;;;5.97;;
44147;SDS011;29810;55.848;37.368;2022-08-19T11:13:38;11.85;;;5.50;;
44147;SDS011;29810;55.848;37.368;2022-08-19T11:16:41;10.25;;;5.80;;
44147;SDS011;29810;55.848;37.368;2022-08-19T11:19:43;7.70;;;4.60;;
44147;SDS011;29810;55.848;37.368;2022-08-19T11:22:44;11.10;;;4.62;;
44147;SDS011;29810;55.848;37.368;2022-08-19T11:25:46;16.45;;;4.57;;
44147;SDS011;29810;55.848;37.368;2022-08-19T11:28:48;10.65;;;4.20;;
44147;SDS011;29810;55.848;37.368;2022-08-19T11:31:53;11.35;;;4.28;;
44147;SDS011;29810;55.848;37.368;2022-08-19T11:34:55;6.82;;;4.05;;
44147;SDS011;29810;55.848;37.368;2022-08-19T11:37:57;7.78;;;4.22;;
44147;SDS011;29810;55.848;37.368;2022-08-19T11:41:03;12.55;;;4.70;;
44147;SDS011;29810;55.848;37.368;2022-08-19T11:44:08;6.72;;;3.83;;
44147;SDS011;29810;55.848;37.368;2022-08-19T11:47:10;5.68;;;4.10;;
44147;SDS011;29810;55.848;37.368;2022-08-19T11:50:12;9.30;;;4.50;;
44147;SDS011;29810;55.848;37.368;2022-08-19T11:53:15;7.22;;;4.20;;
44147;SDS011;29810;55.848;37.368;2022-08-19T11:56:20;10.40;;;4.60;;
44147;SDS011;29810;55.848;37.368;2022-08-19T11:59:23;9.85;;;4.30;;
44147;SDS011;29810;55.848;37.368;2022-08-19T12:02:24;9.13;;;4.60;;
44147;SDS011;29810;55.848;37.368;2022-08-19T12:05:26;8.35;;;4.50;;
44147;SDS011;29810;55.848;37.368;2022-08-19T12:08:28;7.85;;;4.05;;
44147;SDS011;29810;55.848;37.368;2022-08-19T12:11:30;9.98;;;4.10;;
44147;SDS011;29810;55.848;37.368;2022-08-19T12:14:31;11.02;;;4.35;;
44147;SDS011;29810;55.848;37.368;2022-08-19T12:17:33;8.30;;;3.90;;
44147;SDS011;29810;55.848;37.368;2022-08-19T12:20:35;7.28;;;4.10;;
44147;SDS011;29810;55.848;37.368;2022-08-19T12:23:38;9.50;;;3.85;;
44147;SDS011;29810;55.848;37.368;2022-08-19T12:26:39;7.10;;;3.80;;
44147;SDS011;29810;55.848;37.368;2022-08-19T12:29:41;7.32;;;3.83;;
44147;SDS011;29810;55.848;37.368;2022-08-19T12:32:42;9.57;;;3.95;;
44147;SDS011;29810;55.848;37.368;2022-08-19T12:35:44;8.05;;;3.85;;
44147;SDS011;29810;55.848;37.368;2022-08-19T12:38:47;10.38;;;3.67;;
44147;SDS011;29810;55.848;37.368;2022-08-19T12:41:49;6.35;;;3.53;;
44147;SDS011;29810;55.848;37.368;2022-08-19T12:44:50;6.25;;;3.60;;
44147;SDS011;29810;55.848;37.368;2022-08-19T12:47:52;6.65;;;3.85;;
44147;SDS011;29810;55.848;37.368;2022-08-19T12:50:54;7.68;;;3.58;;
44147;SDS011;29810;55.848;37.368;2022-08-19T12:53:55;7.22;;;3.90;;
44147;SDS011;29810;55.848;37.368;2022-08-19T12:56:57;10.80;;;3.95;;
44147;SDS011;29810;55.848;37.368;2022-08-19T13:00:08;7.87;;;3.85;;
44147;SDS011;29810;55.848;37.368;2022-08-19T13:03:13;8.52;;;3.95;;
44147;SDS011;29810;55.848;37.368;2022-08-19T13:06:14;6.40;;;4.15;;
44147;SDS011;29810;55.848;37.368;2022-08-19T13:09:16;7.15;;;4.05;;
44147;SDS011;29810;55.848;37.368;2022-08-19T13:12:18;10.20;;;4.32;;
44147;SDS011;29810;55.848;37.368;2022-08-19T13:15:21;6.37;;;3.87;;
44147;SDS011;29810;55.848;37.368;2022-08-19T13:18:24;9.73;;;4.10;;
44147;SDS011;29810;55.848;37.368;2022-08-19T13:21:26;11.90;;;4.03;;
44147;SDS011;29810;55.848;37.368;2022-08-19T13:24:28;12.80;;;4.70;;
44147;SDS011;29810;55.848;37.368;2022-08-19T13:27:30;9.70;;;4.87;;
44147;SDS011;29810;55.848;37.368;2022-08-19T13:30:32;10.70;;;4.75;;
44147;SDS011;29810;55.848;37.368;2022-08-19T13:33:52;9.05;;;4.70;;
44147;SDS011;29810;55.848;37.368;2022-08-19T13:36:54;6.32;;;4.50;;
44147;SDS011;29810;55.848;37.368;2022-08-19T13:39:55;6.57;;;4.60;;
44147;SDS011;29810;55.848;37.368;2022-08-19T13:42:57;6.93;;;4.37;;
44147;SDS011;29810;55.848;37.368;2022-08-19T13:45:58;8.55;;;4.60;;
44147;SDS011;29810;55.848;37.368;2022-08-19T13:49:01;6.55;;;4.70;;
44147;SDS011;29810;55.848;37.368;2022-08-19T13:52:03;6.75;;;4.53;;
44147;SDS011;29810;55.848;37.368;2022-08-19T13:55:06;8.27;;;4.50;;
44147;SDS011;29810;55.848;37.368;2022-08-19T13:58:08;7.62;;;4.30;;
44147;SDS011;29810;55.848;37.368;2022-08-19T14:01:12;10.05;;;4.65;;
44147;SDS011;29810;55.848;37.368;2022-08-19T14:04:13;9.02;;;4.60;;
44147;SDS011;29810;55.848;37.368;2022-08-19T14:07:15;8.30;;;4.85;;
44147;SDS011;29810;55.848;37.368;2022-08-19T14:10:17;9.52;;;4.55;;
44147;SDS011;29810;55.848;37.368;2022-08-19T14:13:20;12.52;;;4.50;;
44147;SDS011;29810;55.848;37.368;2022-08-19T14:16:23;7.72;;;4.40;;
44147;SDS011;29810;55.848;37.368;2022-08-19T14:19:25;14.27;;;4.65;;
44147;SDS011;29810;55.848;37.368;2022-08-19T14:22:27;8.43;;;4.72;;
44147;SDS011;29810;55.848;37.368;2022-08-19T14:25:29;7.47;;;4.60;;
44147;SDS011;29810;55.848;37.368;2022-08-19T14:28:31;7.82;;;4.57;;
44147;SDS011;29810;55.848;37.368;2022-08-19T14:31:33;10.52;;;4.62;;
44147;SDS011;29810;55.848;37.368;2022-08-19T14:34:35;8.18;;;4.82;;
44147;SDS011;29810;55.848;37.368;2022-08-19T14:37:38;11.27;;;4.30;;
44147;SDS011;29810;55.848;37.368;2022-08-19T14:40:41;9.73;;;4.72;;
44147;SDS011;29810;55.848;37.368;2022-08-19T14:43:43;7.20;;;4.28;;
44147;SDS011;29810;55.848;37.368;2022-08-19T14:46:47;7.85;;;4.45;;
44147;SDS011;29810;55.848;37.368;2022-08-19T14:49:48;8.52;;;4.28;;
44147;SDS011;29810;55.848;37.368;2022-08-19T14:52:56;10.23;;;4.70;;
44147;SDS011;29810;55.848;37.368;2022-08-19T14:55:59;6.85;;;4.45;;
44147;SDS011;29810;55.848;37.368;2022-08-19T14:59:01;10.32;;;4.80;;
44147;SDS011;29810;55.848;37.368;2022-08-19T15:02:03;12.18;;;7.25;;
44147;SDS011;29810;55.848;37.368;2022-08-19T15:05:05;12.35;;;8.02;;
44147;SDS011;29810;55.848;37.368;2022-08-19T15:08:07;14.30;;;8.20;;
44147;SDS011;29810;55.848;37.368;2022-08-19T15:11:09;13.43;;;8.55;;
44147;SDS011;29810;55.848;37.368;2022-08-19T15:14:16;15.43;;;8.52;;
44147;SDS011;29810;55.848;37.368;2022-08-19T15:17:18;14.50;;;9.00;;
44147;SDS011;29810;55.848;37.368;2022-08-19T15:20:20;12.40;;;8.70;;
44147;SDS011;29810;55.848;37.368;2022-08-19T15:23:23;11.70;;;6.25;;
44147;SDS011;29810;55.848;37.368;2022-08-19T15:26:25;9.10;;;5.97;;
44147;SDS011;29810;55.848;37.368;2022-08-19T15:29:29;9.98;;;5.62;;
44147;SDS011;29810;55.848;37.368;2022-08-19T15:32:30;9.30;;;5.18;;
44147;SDS011;29810;55.848;37.368;2022-08-19T15:35:32;8.27;;;4.85;;
44147;SDS011;29810;55.848;37.368;2022-08-19T15:38:34;9.50;;;4.90;;
44147;SDS011;29810;55.848;37.368;2022-08-19T15:41:36;13.10;;;5.03;;
44147;SDS011;29810;55.848;37.368;2022-08-19T15:44:39;6.43;;;4.35;;
44147;SDS011;29810;55.848;37.368;2022-08-19T15:47:41;11.50;;;4.87;;
44147;SDS011;29810;55.848;37.368;2022-08-19T15:50:42;10.32;;;5.00;;
44147;SDS011;29810;55.848;37.368;2022-08-19T15:53:44;13.07;;;4.85;;
44147;SDS011;29810;55.848;37.368;2022-08-19T15:56:46;11.25;;;4.40;;
44147;SDS011;29810;55.848;37.368;2022-08-19T16:00:08;10.50;;;4.93;;
44147;SDS011;29810;55.848;37.368;2022-08-19T16:03:28;10.43;;;4.78;;
44147;SDS011;29810;55.848;37.368;2022-08-19T16:06:50;10.18;;;4.60;;
44147;SDS011;29810;55.848;37.368;2022-08-19T16:09:53;8.67;;;4.33;;
44147;SDS011;29810;55.848;37.368;2022-08-19T16:12:55;12.48;;;5.18;;
44147;SDS011;29810;55.848;37.368;2022-08-19T16:15:58;11.70;;;4.93;;
44147;SDS011;29810;55.848;37.368;2022-08-19T16:19:01;9.77;;;4.78;;
44147;SDS011;29810;55.848;37.368;2022-08-19T16:22:06;8.80;;;4.95;;
44147;SDS011;29810;55.848;37.368;2022-08-19T16:25:09;11.48;;;5.12;;
44147;SDS011;29810;55.848;37.368;2022-08-19T16:28:11;9.77;;;5.10;;
44147;SDS011;29810;55.848;37.368;2022-08-19T16:31:13;10.75;;;4.53;;
44147;SDS011;29810;55.848;37.368;2022-08-19T16:34:15;12.57;;;5.07;;
44147;SDS011;29810;55.848;37.368;2022-08-19T16:37:17;15.48;;;4.90;;
44147;SDS011;29810;55.848;37.368;2022-08-19T16:40:19;10.48;;;4.90;;
44147;SDS011;29810;55.848;37.368;2022-08-19T16:43:21;12.13;;;4.62;;
44147;SDS011;29810;55.848;37.368;2022-08-19T16:46:23;11.77;;;4.72;;
44147;SDS011;29810;55.848;37.368;2022-08-19T16:49:26;8.93;;;4.30;;
44147;SDS011;29810;55.848;37.368;2022-08-19T16:52:28;12.40;;;4.80;;
44147;SDS011;29810;55.848;37.368;2022-08-19T16:55:30;8.68;;;4.62;;
44147;SDS011;29810;55.848;37.368;2022-08-19T16:58:32;10.13;;;4.97;;
44147;SDS011;29810;55.848;37.368;2022-08-19T17:01:34;10.27;;;4.82;;
44147;SDS011;29810;55.848;37.368;2022-08-19T17:04:35;8.63;;;4.53;;
44147;SDS011;29810;55.848;37.368;2022-08-19T17:07:37;8.30;;;4.60;;
44147;SDS011;29810;55.848;37.368;2022-08-19T17:10:39;9.30;;;4.60;;
44147;SDS011;29810;55.848;37.368;2022-08-19T17:13:41;9.25;;;4.62;;
44147;SDS011;29810;55.848;37.368;2022-08-19T17:16:42;10.77;;;4.45;;
44147;SDS011;29810;55.848;37.368;2022-08-19T17:19:44;10.48;;;4.45;;
44147;SDS011;29810;55.848;37.368;2022-08-19T17:22:47;9.32;;;4.30;;
44147;SDS011;29810;55.848;37.368;2022-08-19T17:25:49;6.97;;;4.53;;
44147;SDS011;29810;55.848;37.368;2022-08-19T17:28:52;11.35;;;4.87;;
44147;SDS011;29810;55.848;37.368;2022-08-19T17:31:55;10.43;;;4.30;;
44147;SDS011;29810;55.848;37.368;2022-08-19T17:34:57;8.10;;;4.70;;
44147;SDS011;29810;55.848;37.368;2022-08-19T17:38:02;9.40;;;5.20;;
44147;SDS011;29810;55.848;37.368;2022-08-19T17:41:05;10.82;;;4.65;;
44147;SDS011;29810;55.848;37.368;2022-08-19T17:44:07;9.52;;;4.87;;
44147;SDS011;29810;55.848;37.368;2022-08-19T17:47:09;8.68;;;5.30;;
44147;SDS011;29810;55.848;37.368;2022-08-19T17:50:12;10.27;;;4.70;;
44147;SDS011;29810;55.848;37.368;2022-08-19T17:53:14;9.43;;;4.70;;
44147;SDS011;29810;55.848;37.368;2022-08-19T17:56:16;8.32;;;4.47;;
44147;SDS011;29810;55.848;37.368;2022-08-19T17:59:17;9.20;;;4.55;;
44147;SDS011;29810;55.848;37.368;2022-08-19T18:02:19;9.65;;;4.90;;
44147;SDS011;29810;55.848;37.368;2022-08-19T18:05:22;10.70;;;4.80;;